Time;durP1;ratioP1;P1;durP2;ratioP2;P2;SDS_P1;SDS_P2;PMS_P1;PMS_P2;Temp;Humidity;BMP_temperature;BMP_pressure;BME280_temperature;BME280_humidity;BME280_pressure;Samples;Min_cycle;Max_cycle;Signal;HPM_P1;HPM_P2
2021/11/22 00:00:33;;;;;;;6.80;1.25;;;;;;;4.17;78.87;102201.78;5048059;28;20091;-55
2021/11/22 00:02:59;;;;;;;6.65;1.33;;;;;;;4.16;79.09;102200.03;5048248;28;20026;-54
2021/11/22 00:05:25;;;;;;;3.75;1.17;;;;;;;4.11;79.10;102206.91;5047046;28;20495;-56
2021/11/22 00:07:51;;;;;;;4.43;0.90;;;;;;;4.09;79.02;102212.09;5046055;28;20041;-53
2021/11/22 00:10:17;;;;;;;9.07;1.63;;;;;;;4.06;79.24;102217.25;5048413;28;20056;-56
2021/11/22 00:12:42;;;;;;;5.97;1.45;;;;;;;4.05;79.19;102218.13;5047290;28;20432;-54
2021/11/22 00:15:10;;;;;;;4.75;1.40;;;;;;;4.04;79.21;102222.44;5048343;28;20021;-57
2021/11/22 00:17:36;;;;;;;8.95;1.58;;;;;;;3.96;79.53;102224.06;5047388;28;20056;-56
2021/11/22 00:20:08;;;;;;;6.75;1.13;;;;;;;3.92;79.61;102227.50;5047335;28;20025;-59
2021/11/22 00:22:33;;;;;;;5.18;1.10;;;;;;;3.87;79.94;102231.75;5046954;28;20391;-56
2021/11/22 00:24:59;;;;;;;2.83;1.10;;;;;;;3.83;80.15;102235.16;5047256;28;20032;-55
2021/11/22 00:27:24;;;;;;;3.88;1.15;;;;;;;3.86;80.16;102235.22;5047217;28;20032;-55
2021/11/22 00:29:49;;;;;;;6.45;1.20;;;;;;;3.88;79.87;102236.97;5047226;28;20550;-56
2021/11/22 00:32:15;;;;;;;6.03;1.05;;;;;;;3.83;79.97;102246.47;5047416;28;20581;-53
2021/11/22 00:34:44;;;;;;;5.18;1.17;;;;;;;3.78;80.23;102246.41;5047595;28;20564;-56
2021/11/22 00:37:14;;;;;;;;;;;;;;;3.78;80.21;102248.13;5046937;28;20021;-55
2021/11/22 00:39:39;;;;;;;3.97;1.30;;;;;;;3.71;80.19;102254.97;5047585;28;19917;-57
2021/11/22 00:42:09;;;;;;;4.78;1.17;;;;;;;3.70;80.34;102257.53;5047610;28;20021;-57
2021/11/22 00:44:37;;;;;;;;;;;;;;;3.57;80.72;102257.31;5047745;28;20040;-55
2021/11/22 00:47:03;;;;;;;8.13;1.30;;;;;;;3.50;81.04;102258.94;5047475;28;19939;-57
2021/11/22 00:49:29;;;;;;;7.30;1.38;;;;;;;3.44;81.54;102261.44;5046683;28;20036;-57
2021/11/22 00:51:54;;;;;;;4.32;1.20;;;;;;;3.45;81.40;102270.09;5046855;28;20052;-55
2021/11/22 00:54:19;;;;;;;5.97;1.52;;;;;;;3.38;81.42;102275.22;5039277;28;20487;-56
2021/11/22 00:56:45;;;;;;;6.82;1.20;;;;;;;3.36;81.90;102273.41;5048024;28;20025;-55
2021/11/22 00:59:10;;;;;;;7.63;1.10;;;;;;;3.32;81.95;102276.81;5047443;28;20163;-54
2021/11/22 01:01:36;;;;;;;15.27;1.83;;;;;;;3.31;82.22;102280.28;5046822;28;20044;-54
2021/11/22 01:04:03;;;;;;;7.97;1.20;;;;;;;3.27;82.15;102284.53;5042765;28;20033;-55
2021/11/22 01:06:28;;;;;;;15.93;1.40;;;;;;;3.32;82.25;102293.34;5027138;28;20045;-54
2021/11/22 01:08:53;;;;;;;6.03;1.48;;;;;;;3.31;82.35;102299.38;5034950;28;20028;-55
2021/11/22 01:11:19;;;;;;;12.32;1.63;;;;;;;3.32;82.28;102293.34;5046503;28;20033;-55
2021/11/22 01:13:44;;;;;;;7.72;1.30;;;;;;;3.27;82.14;102295.84;5044709;28;20364;-57
2021/11/22 01:16:09;;;;;;;8.68;1.30;;;;;;;3.17;82.08;102293.91;5047429;28;20038;-56
2021/11/22 01:18:35;;;;;;;9.82;1.40;;;;;;;3.14;82.62;102299.94;5046492;28;20035;-54
2021/11/22 01:21:00;;;;;;;4.45;1.42;;;;;;;3.18;82.70;102305.19;5046812;28;20094;-55
2021/11/22 01:23:26;;;;;;;6.22;1.88;;;;;;;3.15;82.63;102300.78;5045897;28;20029;-55
2021/11/22 01:25:51;;;;;;;7.10;1.35;;;;;;;3.14;82.68;102307.75;5046699;28;20065;-59
2021/11/22 01:28:16;;;;;;;2.05;1.15;;;;;;;3.14;82.57;102319.88;5046774;28;20033;-58
2021/11/22 01:30:42;;;;;;;6.45;1.38;;;;;;;3.19;82.89;102320.84;5045231;28;20248;-55
2021/11/22 01:33:07;;;;;;;7.38;1.20;;;;;;;3.20;82.49;102327.84;5046091;28;20113;-59
2021/11/22 01:35:33;;;;;;;7.85;1.65;;;;;;;3.22;82.49;102330.47;5044477;28;20155;-59
2021/11/22 01:37:58;;;;;;;7.25;1.48;;;;;;;3.20;82.26;102330.44;5046100;28;20070;-57
2021/11/22 01:40:25;;;;;;;5.18;1.00;;;;;;;3.10;82.30;102333.69;5040364;28;20021;-59
2021/11/22 01:42:52;;;;;;;4.80;0.98;;;;;;;3.03;82.59;102340.47;5027614;28;20392;-56
2021/11/22 01:45:18;;;;;;;5.68;1.45;;;;;;;2.99;82.99;102349.09;5027584;28;20017;-51
2021/11/22 01:47:44;;;;;;;6.68;1.50;;;;;;;2.96;83.11;102349.91;5046253;28;20056;-55
2021/11/22 01:50:13;;;;;;;7.13;1.50;;;;;;;2.96;83.17;102346.41;5045655;28;20029;-53
2021/11/22 01:52:39;;;;;;;10.55;1.65;;;;;;;2.92;83.28;102355.84;5046105;28;20115;-56
2021/11/22 01:55:07;;;;;;;9.85;1.55;;;;;;;2.91;83.37;102354.13;5046018;28;20031;-55
2021/11/22 01:57:34;;;;;;;7.32;1.58;;;;;;;2.94;83.31;102359.38;5057300;28;20051;-56
2021/11/22 02:00:02;;;;;;;8.98;1.70;;;;;;;2.97;83.40;102356.84;5044644;28;20024;-57
2021/11/22 02:02:28;;;;;;;7.30;1.33;;;;;;;2.93;83.60;102360.25;5035417;28;20048;-56
2021/11/22 02:04:53;;;;;;;12.68;2.05;;;;;;;2.90;83.49;102362.78;5041836;28;20025;-55
2021/11/22 02:07:19;;;;;;;3.45;1.27;;;;;;;2.82;83.63;102367.81;5031350;28;20035;-56
2021/11/22 02:09:44;;;;;;;9.45;1.25;;;;;;;2.75;83.71;102365.91;5046174;28;20384;-58
2021/11/22 02:12:10;;;;;;;10.68;1.45;;;;;;;2.65;83.55;102375.22;5043290;28;20536;-57
2021/11/22 02:14:36;;;;;;;5.28;1.30;;;;;;;2.56;83.82;102375.00;5045498;28;20032;-57
2021/11/22 02:17:01;;;;;;;4.78;1.20;;;;;;;2.48;83.75;102370.50;5044249;28;20434;-55
2021/11/22 02:19:26;;;;;;;3.92;1.15;;;;;;;2.37;83.97;102367.63;5046176;28;20028;-54
2021/11/22 02:21:52;;;;;;;8.20;1.98;;;;;;;2.33;84.16;102367.50;5044552;28;20044;-56
2021/11/22 02:24:19;;;;;;;8.55;1.55;;;;;;;2.30;84.54;102370.91;5038961;28;20099;-57
2021/11/22 02:26:44;;;;;;;8.02;1.48;;;;;;;2.30;84.50;102377.81;5045392;28;20037;-54
2021/11/22 02:29:09;;;;;;;7.10;1.60;;;;;;;2.33;84.71;102384.00;5034652;28;20057;-55
2021/11/22 02:31:36;;;;;;;10.02;1.50;;;;;;;2.34;84.63;102382.25;5033573;28;20057;-55
2021/11/22 02:34:02;;;;;;;3.78;1.55;;;;;;;2.37;84.64;102385.81;5030370;28;20047;-55
2021/11/22 02:36:28;;;;;;;13.00;1.70;;;;;;;2.39;84.46;102391.06;5042300;28;20040;-55
2021/11/22 02:38:53;;;;;;;8.15;1.67;;;;;;;2.44;84.33;102393.78;5044541;28;20087;-52
2021/11/22 02:41:19;;;;;;;5.72;1.42;;;;;;;2.49;84.29;102395.66;5045206;28;20495;-54
2021/11/22 02:43:46;;;;;;;17.45;3.00;;;;;;;2.56;83.89;102393.22;5038221;28;20037;-51
2021/11/22 02:46:12;;;;;;;8.55;1.42;;;;;;;2.58;83.65;102400.22;5035340;28;20430;-51
2021/11/22 02:48:38;;;;;;;10.02;1.50;;;;;;;2.60;83.38;102397.66;5041176;28;20025;-57
2021/11/22 02:51:05;;;;;;;6.72;2.30;;;;;;;2.59;83.25;102398.50;5041693;28;20097;-55
2021/11/22 02:53:31;;;;;;;8.00;2.70;;;;;;;2.61;83.28;102404.59;5044630;28;20112;-61
2021/11/22 02:56:00;;;;;;;9.15;1.38;;;;;;;2.64;82.83;102407.28;5045183;28;20028;-53
2021/11/22 02:58:25;;;;;;;11.95;3.25;;;;;;;2.68;82.39;102408.25;5045384;28;20025;-57
2021/11/22 03:00:52;;;;;;;21.90;3.47;;;;;;;2.67;82.17;102412.56;5042302;28;20057;-56
2021/11/22 03:03:17;;;;;;;8.57;1.70;;;;;;;2.59;82.03;102414.97;5030801;28;20022;-56
2021/11/22 03:05:43;;;;;;;10.30;1.63;;;;;;;2.57;82.43;102418.38;5039266;28;20029;-58
2021/11/22 03:08:08;;;;;;;3.00;1.10;;;;;;;2.50;82.37;102425.19;5049515;28;20029;-57
2021/11/22 03:10:34;;;;;;;7.82;1.88;;;;;;;2.60;82.12;102426.28;5043653;28;20159;-54
2021/11/22 03:13:00;;;;;;;7.10;1.52;;;;;;;2.67;81.75;102430.78;5049934;28;20105;-55
2021/11/22 03:15:26;;;;;;;13.15;1.63;;;;;;;2.74;81.36;102434.44;5046204;28;20119;-60
2021/11/22 03:17:52;;;;;;;5.90;1.38;;;;;;;2.76;81.08;102446.66;5030155;28;20064;-56
2021/11/22 03:20:19;;;;;;;3.00;1.10;;;;;;;2.73;81.13;102437.88;5031540;28;20053;-55
2021/11/22 03:22:45;;;;;;;5.50;1.20;;;;;;;2.65;81.04;102442.91;5039999;28;20032;-55
2021/11/22 03:25:11;;;;;;;5.68;1.27;;;;;;;2.62;81.06;102453.22;5032611;28;20732;-54
2021/11/22 03:27:38;;;;;;;9.20;2.00;;;;;;;2.60;81.12;102447.09;5046947;28;20052;-58
2021/11/22 03:30:05;;;;;;;11.20;1.42;;;;;;;2.53;81.31;102452.13;5039973;28;20439;-56
2021/11/22 03:32:30;;;;;;;7.97;1.52;;;;;;;2.46;81.53;102455.44;5039223;28;20025;-56
2021/11/22 03:34:56;;;;;;;6.43;1.50;;;;;;;2.46;81.34;102452.81;5047886;28;20032;-57
2021/11/22 03:37:22;;;;;;;6.75;1.20;;;;;;;2.53;81.05;102457.34;5047219;28;20036;-58
2021/11/22 03:39:50;;;;;;;9.85;0.98;;;;;;;2.57;80.72;102462.63;5049668;28;20467;-56
2021/11/22 03:42:17;;;;;;;5.20;1.02;;;;;;;2.56;80.56;102469.53;5037544;28;22555;-57
2021/11/22 03:44:43;;;;;;;5.40;1.40;;;;;;;2.52;80.75;102468.59;5034316;28;20491;-56
2021/11/22 03:47:08;;;;;;;6.70;1.30;;;;;;;2.53;80.68;102470.34;5047311;28;20064;-57
2021/11/22 03:49:34;;;;;;;10.63;2.35;;;;;;;2.50;80.71;102466.81;5039318;28;20072;-55
2021/11/22 03:52:01;;;;;;;3.28;1.13;;;;;;;2.53;80.48;102475.56;5046992;28;20048;-55
2021/11/22 03:54:26;;;;;;;11.45;1.67;;;;;;;2.52;80.44;102479.00;5047867;28;20033;-57
2021/11/22 03:56:52;;;;;;;4.28;1.20;;;;;;;2.56;80.15;102479.97;5048455;28;20024;-57
2021/11/22 03:59:17;;;;;;;2.75;1.20;;;;;;;2.56;80.14;102481.69;5045867;28;20077;-56
2021/11/22 04:01:43;;;;;;;6.70;1.20;;;;;;;2.49;80.38;102486.75;5035085;28;20313;-54
2021/11/22 04:04:08;;;;;;;11.98;1.92;;;;;;;2.50;80.48;102493.69;5046736;28;20025;-56
2021/11/22 04:06:34;;;;;;;5.18;1.20;;;;;;;2.54;80.21;102499.88;5047251;28;20033;-57
2021/11/22 04:08:59;;;;;;;4.05;1.02;;;;;;;2.50;80.24;102498.03;5042490;28;20427;-57
2021/11/22 04:11:25;;;;;;;9.70;1.60;;;;;;;2.49;80.38;102497.16;5047868;28;20032;-56
2021/11/22 04:13:51;;;;;;;13.07;1.60;;;;;;;2.51;80.37;102499.78;5047765;28;20021;-56
2021/11/22 04:16:17;;;;;;;4.47;0.90;;;;;;;2.55;80.08;102511.16;5046063;28;20029;-56
2021/11/22 04:18:43;;;;;;;7.40;1.77;;;;;;;2.57;80.25;102510.38;5047530;28;20029;-55
2021/11/22 04:21:10;;;;;;;8.43;1.27;;;;;;;2.56;79.88;102519.00;5048060;28;20025;-51
2021/11/22 04:23:35;;;;;;;7.43;1.13;;;;;;;2.66;79.64;102530.56;5046376;28;20108;-58
2021/11/22 04:26:00;;;;;;;5.93;1.77;;;;;;;2.71;79.26;102530.69;5047472;28;20447;-55
2021/11/22 04:28:26;;;;;;;12.15;1.63;;;;;;;2.77;79.14;102531.69;5027967;28;20037;-57
2021/11/22 04:30:51;;;;;;;8.13;1.33;;;;;;;2.74;79.12;102529.03;5037853;28;20387;-57
2021/11/22 04:33:17;;;;;;;6.65;1.30;;;;;;;2.70;79.20;102534.09;5028680;28;20036;-53
2021/11/22 04:35:42;;;;;;;3.90;1.67;;;;;;;2.64;79.32;102527.00;5037332;28;20036;-56
2021/11/22 04:38:08;;;;;;;9.27;1.40;;;;;;;2.61;79.42;102529.53;5047197;28;20324;-59
2021/11/22 04:40:33;;;;;;;6.72;1.13;;;;;;;2.58;79.49;102543.34;5042296;28;20100;-55
2021/11/22 04:42:58;;;;;;;1.67;0.90;;;;;;;2.47;79.79;102540.44;5026342;28;20029;-57
2021/11/22 04:45:28;;;;;;;5.35;0.85;;;;;;;2.41;79.90;102537.72;5038508;28;20032;-55
2021/11/22 04:47:54;;;;;;;7.70;1.10;;;;;;;2.29;80.20;102546.06;5042658;28;20025;-57
2021/11/22 04:50:20;;;;;;;7.20;1.02;;;;;;;2.23;80.50;102549.34;5045607;28;20639;-55
2021/11/22 04:52:48;;;;;;;5.57;1.30;;;;;;;2.19;80.72;102554.41;5047133;28;20067;-56
2021/11/22 04:55:15;;;;;;;2.92;0.77;;;;;;;2.07;80.90;102555.81;5046145;28;20499;-55
2021/11/22 04:57:41;;;;;;;4.32;0.85;;;;;;;2.02;81.22;102558.28;5048096;28;20394;-55
2021/11/22 05:00:08;;;;;;;12.45;2.60;;;;;;;1.99;81.43;102558.19;5033952;28;20033;-56
2021/11/22 05:02:33;;;;;;;8.73;1.30;;;;;;;2.00;81.65;102567.78;5035831;28;20041;-57
2021/11/22 05:04:58;;;;;;;3.72;1.00;;;;;;;1.98;81.60;102564.22;5046679;28;20075;-58
2021/11/22 05:07:24;;;;;;;4.13;0.98;;;;;;;1.96;81.68;102567.63;5046231;28;20128;-56
2021/11/22 05:09:49;;;;;;;10.55;1.20;;;;;;;1.95;81.83;102578.84;5042696;28;20091;-55
2021/11/22 05:12:16;;;;;;;4.30;1.13;;;;;;;1.92;81.97;102577.03;5040904;28;20067;-56
2021/11/22 05:14:41;;;;;;;5.00;1.10;;;;;;;1.91;81.98;102577.88;5045417;28;20029;-56
2021/11/22 05:17:06;;;;;;;8.68;1.20;;;;;;;1.90;82.01;102583.94;5046176;28;20029;-59
2021/11/22 05:19:32;;;;;;;3.55;1.30;;;;;;;1.81;82.04;102586.25;5047426;28;20059;-55
2021/11/22 05:21:59;;;;;;;2.17;0.93;;;;;;;1.69;82.23;102586.75;5040807;28;20024;-53
2021/11/22 05:24:25;;;;;;;9.80;1.40;;;;;;;1.65;82.44;102590.94;5047674;28;20077;-54
2021/11/22 05:26:50;;;;;;;4.53;1.10;;;;;;;1.57;82.63;102595.03;5046889;28;20829;-57
2021/11/22 05:29:16;;;;;;;6.88;1.30;;;;;;;1.50;82.71;102593.94;5041076;28;20032;-56
2021/11/22 05:31:41;;;;;;;4.90;1.27;;;;;;;1.37;82.97;102595.25;5047523;28;20498;-54
2021/11/22 05:34:06;;;;;;;7.93;1.05;;;;;;;1.26;83.13;102608.78;5047437;28;20368;-57
2021/11/22 05:36:35;;;;;;;7.10;1.20;;;;;;;1.14;83.32;102605.75;5046412;28;20024;-52
2021/11/22 05:39:00;;;;;;;4.43;0.80;;;;;;;1.03;83.40;102608.00;5047247;28;20028;-57
2021/11/22 05:41:26;;;;;;;4.35;1.13;;;;;;;0.96;83.57;102612.09;5047237;28;20025;-56
2021/11/22 05:43:51;;;;;;;10.80;1.73;;;;;;;0.88;84.10;102613.53;5046962;28;20102;-58
2021/11/22 05:46:17;;;;;;;7.45;1.40;;;;;;;0.87;84.24;102611.75;5044173;28;20488;-56
2021/11/22 05:48:42;;;;;;;7.38;1.70;;;;;;;0.83;84.40;102620.28;5043085;28;20040;-55
2021/11/22 05:51:08;;;;;;;9.40;1.40;;;;;;;0.84;84.64;102628.09;5045748;28;20033;-62
2021/11/22 05:53:35;;;;;;;7.45;1.25;;;;;;;0.83;84.45;102623.75;5044913;28;20033;-55
2021/11/22 05:56:03;;;;;;;4.68;1.40;;;;;;;0.84;84.83;102629.84;5043680;28;20025;-57
2021/11/22 05:58:31;;;;;;;7.80;1.23;;;;;;;0.86;84.88;102631.66;5044080;28;20033;-56
2021/11/22 06:00:57;;;;;;;3.15;0.95;;;;;;;0.84;84.64;102632.44;5036497;28;20025;-57
2021/11/22 06:03:22;;;;;;;3.20;1.00;;;;;;;0.83;84.81;102641.03;5035326;28;20055;-57
2021/11/22 06:05:48;;;;;;;10.40;1.40;;;;;;;0.84;85.00;102643.69;5036886;28;20064;-57
2021/11/22 06:08:13;;;;;;;8.40;1.90;;;;;;;0.99;85.91;102637.25;5041016;28;20029;-55
2021/11/22 06:10:39;;;;;;;11.52;2.50;;;;;;;1.08;85.44;102645.38;5027752;28;20066;-56
2021/11/22 06:13:05;;;;;;;12.50;1.65;;;;;;;1.07;84.94;102651.41;5046321;28;20029;-55
2021/11/22 06:15:30;;;;;;;8.13;1.52;;;;;;;1.05;84.82;102659.97;5034241;28;20021;-57
2021/11/22 06:17:56;;;;;;;5.18;1.30;;;;;;;0.98;84.43;102664.94;5046412;28;20033;-57
2021/11/22 06:20:21;;;;;;;10.45;2.00;;;;;;;0.92;84.48;102662.13;5035309;28;20012;-57
2021/11/22 06:22:46;;;;;;;6.18;1.20;;;;;;;0.85;84.56;102665.34;5027976;28;20065;-57
2021/11/22 06:25:12;;;;;;;5.80;1.58;;;;;;;0.80;84.62;102672.97;5037594;28;20308;-55
2021/11/22 06:27:37;;;;;;;12.35;1.70;;;;;;;0.78;84.81;102673.75;5045733;28;20021;-55
2021/11/22 06:30:07;;;;;;;3.30;1.98;;;;;;;0.74;84.71;102673.63;5045854;28;20429;-55
2021/11/22 06:32:32;;;;;;;;;;;;;;;0.71;84.99;102678.69;5046113;28;20090;-58
2021/11/22 06:34:58;;;;;;;6.50;1.50;;;;;;;0.64;84.85;102681.91;5045193;28;19916;-56
2021/11/22 06:37:28;;;;;;;8.75;1.58;;;;;;;0.59;84.81;102683.41;5044647;28;20036;-56
2021/11/22 06:39:54;;;;;;;9.32;2.00;;;;;;;0.59;85.34;102684.31;5045552;28;20115;-56
2021/11/22 06:42:20;;;;;;;5.93;1.60;;;;;;;0.58;85.33;102694.63;5044097;28;20029;-55
2021/11/22 06:44:46;;;;;;;7.63;2.20;;;;;;;0.73;85.93;102692.59;5046135;28;20408;-58
2021/11/22 06:47:12;;;;;;;10.20;2.25;;;;;;;0.94;86.25;102686.44;5044229;28;20028;-57
2021/11/22 06:49:37;;;;;;;6.45;2.75;;;;;;;0.99;85.81;102695.28;5045846;28;20025;-55
2021/11/22 06:52:03;;;;;;;8.30;1.27;;;;;;;0.92;85.13;102708.84;5043944;28;20434;-57
2021/11/22 06:54:28;;;;;;;5.28;1.50;;;;;;;0.88;85.11;102717.38;5045969;28;20117;-57
2021/11/22 06:56:53;;;;;;;4.45;1.70;;;;;;;0.87;85.51;102726.84;5033767;28;20738;-55
2021/11/22 06:59:19;;;;;;;6.72;1.98;;;;;;;0.87;85.40;102723.38;5044596;28;20021;-55
2021/11/22 07:01:44;;;;;;;7.82;2.17;;;;;;;0.82;85.22;102731.00;5045161;28;20036;-56
2021/11/22 07:04:09;;;;;;;6.50;1.90;;;;;;;0.75;85.22;102735.06;5044614;28;20011;-55
2021/11/22 07:06:35;;;;;;;8.48;1.73;;;;;;;0.72;85.23;102747.06;5044928;28;20021;-54
2021/11/22 07:09:01;;;;;;;4.25;2.03;;;;;;;0.72;85.40;102750.53;5031378;28;20536;-54
2021/11/22 07:11:26;;;;;;;3.25;1.73;;;;;;;0.72;85.38;102745.31;5029861;28;20038;-56
2021/11/22 07:13:52;;;;;;;8.43;1.83;;;;;;;0.77;85.55;102757.59;5046046;28;20025;-54
2021/11/22 07:16:17;;;;;;;6.93;2.00;;;;;;;0.79;85.63;102758.53;5045207;28;20057;-55
2021/11/22 07:18:43;;;;;;;4.50;1.40;;;;;;;0.77;85.59;102765.38;5040388;28;20044;-53
2021/11/22 07:21:08;;;;;;;10.05;2.28;;;;;;;0.80;85.91;102776.78;5044309;28;20029;-55
2021/11/22 07:23:34;;;;;;;13.70;3.15;;;;;;;0.91;86.36;102774.59;5042256;28;20039;-52
2021/11/22 07:25:59;;;;;;;12.65;2.15;;;;;;;0.96;86.28;102773.03;5027079;28;20037;-58
2021/11/22 07:28:25;;;;;;;8.77;2.05;;;;;;;0.98;86.02;102781.78;5044072;28;20074;-55
2021/11/22 07:30:50;;;;;;;12.77;2.97;;;;;;;0.97;85.75;102777.38;5045980;28;20086;-56
2021/11/22 07:33:16;;;;;;;15.05;3.17;;;;;;;1.05;85.81;102785.47;5044379;28;20029;-57
2021/11/22 07:35:43;;;;;;;10.50;1.95;;;;;;;1.04;85.66;102790.59;5045030;28;20044;-56
2021/11/22 07:38:09;;;;;;;8.80;2.10;;;;;;;0.99;85.48;102790.44;5040503;28;20445;-54
2021/11/22 07:40:35;;;;;;;7.32;2.28;;;;;;;1.00;85.63;102795.69;5030016;28;20051;-60
2021/11/22 07:43:00;;;;;;;15.43;2.92;;;;;;;1.06;85.87;102799.34;5031665;28;20032;-55
2021/11/22 07:45:26;;;;;;;10.20;3.08;;;;;;;1.08;85.79;102808.97;5045437;28;20137;-54
2021/11/22 07:47:52;;;;;;;9.85;2.20;;;;;;;1.11;85.76;102811.69;5047469;28;20318;-56
2021/11/22 07:50:23;;;;;;;15.48;3.13;;;;;;;1.19;85.96;102811.97;5046030;28;20060;-51
2021/11/22 07:52:49;;;;;;;11.23;2.55;;;;;;;1.25;85.78;102816.50;5025013;28;20017;-54
2021/11/22 07:55:14;;;;;;;17.67;3.05;;;;;;;1.26;85.68;102826.06;5013542;28;20063;-51
2021/11/22 07:57:40;;;;;;;12.20;2.63;;;;;;;1.20;85.51;102823.25;5026069;28;20470;-56
2021/11/22 08:00:07;;;;;;;10.00;3.00;;;;;;;1.18;85.45;102828.38;5024556;28;20499;-53
2021/11/22 08:02:34;;;;;;;8.40;3.33;;;;;;;1.22;85.42;102830.25;5024208;28;20103;-55
2021/11/22 08:05:00;;;;;;;16.13;4.10;;;;;;;1.25;85.43;102838.16;5023068;28;20016;-54
2021/11/22 08:07:25;;;;;;;13.00;3.10;;;;;;;1.22;85.31;102835.47;5023999;28;20442;-57
2021/11/22 08:10:02;;;;;;;12.45;3.60;;;;;;;1.23;85.54;102836.31;5023930;28;20099;-57
2021/11/22 08:12:28;;;;;;;7.85;2.65;;;;;;;1.26;85.51;102839.03;5024832;28;20067;-56
2021/11/22 08:15:00;;;;;;;7.72;3.03;;;;;;;1.31;85.52;102834.91;5022541;28;20124;-54
2021/11/22 08:17:28;;;;;;;7.60;2.75;;;;;;;1.36;85.83;102850.69;5025230;28;20020;-55
2021/11/22 08:19:54;;;;;;;11.57;3.80;;;;;;;1.43;85.67;102847.47;5022942;28;20032;-56
2021/11/22 08:22:22;;;;;;;8.18;3.53;;;;;;;1.53;85.73;102853.00;5023755;28;20017;-54
2021/11/22 08:24:51;;;;;;;11.65;3.42;;;;;;;1.62;85.63;102868.91;5023697;28;20163;-53
2021/11/22 08:27:21;;;;;;;10.05;3.78;;;;;;;1.67;85.46;102863.88;5025648;28;20068;-55
2021/11/22 08:29:47;;;;;;;19.35;5.80;;;;;;;1.71;85.22;102868.34;5010974;28;20033;-55
2021/11/22 08:32:13;;;;;;;10.63;3.67;;;;;;;1.68;85.07;102871.75;5024364;28;20029;-56
2021/11/22 08:34:38;;;;;;;7.25;3.05;;;;;;;1.67;85.11;102871.69;5023881;28;20021;-56
2021/11/22 08:37:04;;;;;;;5.03;2.38;;;;;;;1.65;85.53;102866.44;5018616;28;20439;-56
2021/11/22 08:39:29;;;;;;;6.78;2.65;;;;;;;1.68;85.04;102868.28;5004004;28;20024;-59
2021/11/22 08:41:55;;;;;;;10.32;2.67;;;;;;;1.71;85.24;102871.84;5022618;28;20052;-55
2021/11/22 08:44:20;;;;;;;9.52;2.22;;;;;;;1.75;85.09;102873.72;5024705;28;20424;-60
2021/11/22 08:46:47;;;;;;;2.90;1.90;;;;;;;1.82;85.12;102882.66;5020319;28;20198;-55
2021/11/22 08:49:12;;;;;;;4.82;1.88;;;;;;;1.87;85.19;102880.22;5022874;28;20025;-55
2021/11/22 08:51:38;;;;;;;8.02;2.20;;;;;;;1.95;85.23;102875.25;5021864;28;20032;-56
2021/11/22 08:54:03;;;;;;;17.67;3.47;;;;;;;2.12;84.93;102881.06;5022109;28;20029;-54
2021/11/22 08:56:29;;;;;;;4.15;2.42;;;;;;;2.25;84.91;102884.94;5021476;28;20021;-57
2021/11/22 08:58:55;;;;;;;8.52;2.55;;;;;;;2.36;84.99;102883.63;5022653;28;20041;-59
2021/11/22 09:01:20;;;;;;;17.95;4.32;;;;;;;2.45;84.28;102893.44;5022900;28;20048;-56
2021/11/22 09:03:45;;;;;;;13.20;4.32;;;;;;;2.51;84.20;102890.16;5023750;28;20082;-54
2021/11/22 09:06:12;;;;;;;19.88;5.25;;;;;;;2.53;83.70;102891.09;5015782;28;20064;-55
2021/11/22 09:08:37;;;;;;;19.58;5.40;;;;;;;2.55;83.83;102897.22;5042770;28;20102;-54
2021/11/22 09:11:03;;;;;;;30.80;9.70;;;;;;;2.67;83.62;102903.69;5044948;28;20495;-57
2021/11/22 09:13:28;;;;;;;28.13;8.40;;;;;;;2.75;83.34;102910.91;5045970;28;20056;-56
2021/11/22 09:15:53;;;;;;;26.00;6.95;;;;;;;2.83;83.19;102913.72;5046133;28;20040;-55
2021/11/22 09:18:19;;;;;;;21.70;7.18;;;;;;;2.91;82.85;102903.56;5046277;28;20242;-55
2021/11/22 09:20:46;;;;;;;16.83;4.85;;;;;;;2.95;82.73;102912.38;5045477;28;20052;-55
2021/11/22 09:23:12;;;;;;;10.65;4.95;;;;;;;2.97;82.63;102915.91;5026263;28;20522;-55
2021/11/22 09:25:37;;;;;;;12.30;4.28;;;;;;;3.01;82.78;102917.78;5026191;28;20025;-51
2021/11/22 09:28:03;;;;;;;7.25;3.08;;;;;;;3.09;82.67;102925.81;5043543;28;20079;-53
2021/11/22 09:30:28;;;;;;;8.65;2.83;;;;;;;3.18;82.66;102926.09;5043652;28;20029;-55
2021/11/22 09:32:54;;;;;;;4.30;2.63;;;;;;;3.28;82.61;102933.38;5042210;28;20036;-56
2021/11/22 09:35:20;;;;;;;4.07;2.05;;;;;;;3.39;82.27;102940.63;5037048;28;20029;-56
2021/11/22 09:37:46;;;;;;;8.40;2.78;;;;;;;3.52;82.14;102939.25;5037862;28;20078;-56
2021/11/22 09:40:11;;;;;;;11.55;3.05;;;;;;;3.71;81.02;102943.31;5038771;28;20434;-57
2021/11/22 09:42:37;;;;;;;7.88;2.55;;;;;;;3.87;80.21;102943.72;5042035;28;20044;-56
2021/11/22 09:45:04;;;;;;;10.18;2.10;;;;;;;4.03;79.12;102947.66;5045559;28;20033;-54
2021/11/22 09:47:29;;;;;;;4.72;1.52;;;;;;;4.23;78.25;102953.44;5045336;28;20599;-56
2021/11/22 09:49:55;;;;;;;6.57;1.55;;;;;;;4.40;77.66;102955.59;5042608;28;20044;-56
2021/11/22 09:52:25;;;;;;;3.55;1.17;;;;;;;4.50;77.33;102959.31;5032928;28;20021;-55
2021/11/22 09:54:51;;;;;;;5.28;1.70;;;;;;;4.62;76.89;102963.97;5036894;28;20053;-56
2021/11/22 09:57:16;;;;;;;8.00;1.77;;;;;;;4.72;76.54;102958.13;5045708;28;20032;-51
2021/11/22 09:59:43;;;;;;;4.22;1.42;;;;;;;4.82;75.97;102963.59;5042509;28;20021;-54
2021/11/22 10:02:08;;;;;;;16.50;1.42;;;;;;;4.88;76.19;102954.16;5028194;28;20040;-55
2021/11/22 10:04:34;;;;;;;11.55;1.58;;;;;;;5.00;75.36;102955.31;5037649;28;20021;-54
2021/11/22 10:07:01;;;;;;;13.05;1.90;;;;;;;4.99;75.11;102962.28;5037137;28;20454;-55
2021/11/22 10:09:41;;;;;;;9.57;1.42;;;;;;;5.12;74.26;102965.19;5037669;28;20033;-55
2021/11/22 10:12:18;;;;;;;8.73;1.50;;;;;;;5.22;73.74;102956.69;5034469;28;20025;-54
2021/11/22 10:14:51;;;;;;;5.35;1.35;;;;;;;5.35;72.75;102956.97;5038635;28;20066;-57
2021/11/22 10:17:33;;;;;;;10.27;1.33;;;;;;;5.40;72.72;102960.56;5043743;28;20043;-56
2021/11/22 10:20:12;;;;;;;11.93;1.35;;;;;;;5.52;71.82;102954.72;5034378;28;20022;-55
2021/11/22 10:23:06;;;;;;;6.85;1.45;;;;;;;5.52;72.41;102960.84;5031824;28;20025;-55
2021/11/22 10:25:37;;;;;;;5.05;1.50;;;;;;;5.63;71.46;102960.19;5039779;28;20048;-57
2021/11/22 10:28:13;;;;;;;3.55;1.42;;;;;;;5.65;71.45;102953.25;5045718;28;20454;-56
2021/11/22 10:30:51;;;;;;;4.90;1.50;;;;;;;5.58;70.96;102954.88;5037917;28;20403;-56
2021/11/22 10:33:20;;;;;;;5.68;1.60;;;;;;;5.66;70.35;102955.88;5044662;28;20086;-55
2021/11/22 10:35:46;;;;;;;5.75;1.33;;;;;;;5.65;70.08;102958.47;5044007;28;20097;-54
2021/11/22 10:38:20;;;;;;;6.88;1.17;;;;;;;5.68;69.83;102959.44;5036078;28;20044;-55
2021/11/22 10:40:50;;;;;;;1.13;0.70;;;;;;;5.71;69.65;102957.72;5042782;28;20103;-56
2021/11/22 10:43:16;;;;;;;5.30;1.42;;;;;;;5.77;69.66;102958.75;5042085;28;20075;-56
2021/11/22 10:45:47;;;;;;;2.60;1.08;;;;;;;5.76;69.97;102956.97;5042264;28;20112;-55
2021/11/22 10:48:20;;;;;;;2.55;1.20;;;;;;;5.84;69.66;102956.25;5045132;28;20017;-57
2021/11/22 10:50:50;;;;;;;4.85;1.25;;;;;;;5.93;69.34;102959.06;5041693;28;20483;-55
2021/11/22 10:53:25;;;;;;;4.00;1.30;;;;;;;5.85;69.12;102952.78;5041290;28;20025;-54
2021/11/22 10:55:50;;;;;;;3.42;1.20;;;;;;;5.87;69.54;102959.78;5046180;28;20048;-54
2021/11/22 10:58:29;;;;;;;7.63;1.35;;;;;;;5.87;69.80;102959.78;5027652;28;20032;-55
2021/11/22 11:00:54;;;;;;;3.50;1.52;;;;;;;5.91;69.54;102960.75;5044952;28;20102;-55
2021/11/22 11:03:19;;;;;;;4.72;1.10;;;;;;;5.95;69.65;102959.97;5044826;28;20025;-56
2021/11/22 11:05:56;;;;;;;3.20;1.40;;;;;;;5.93;69.41;102959.06;5040855;28;20496;-56
2021/11/22 11:08:21;;;;;;;4.20;1.38;;;;;;;6.00;68.84;102957.44;5023192;28;20037;-61
2021/11/22 11:10:50;;;;;;;3.40;0.80;;;;;;;6.03;68.18;102958.38;5030120;28;20045;-56
2021/11/22 11:13:16;;;;;;;5.63;0.98;;;;;;;6.19;66.60;102967.44;5034566;28;20512;-55
2021/11/22 11:15:42;;;;;;;5.68;1.23;;;;;;;6.31;67.01;102965.91;5033548;28;20040;-54
2021/11/22 11:18:21;;;;;;;6.80;1.10;;;;;;;6.21;66.65;102964.84;5033605;28;20567;-59
2021/11/22 11:20:48;;;;;;;5.30;1.17;;;;;;;6.31;65.94;102973.75;5043937;28;20025;-54
2021/11/22 11:23:13;;;;;;;4.10;0.80;;;;;;;6.37;65.72;102970.34;5048996;28;20024;-57
2021/11/22 11:25:38;;;;;;;6.13;1.13;;;;;;;6.39;65.64;102966.94;5046829;28;20025;-54
2021/11/22 11:28:04;;;;;;;3.00;0.90;;;;;;;6.37;66.15;102970.34;5048152;28;20486;-53